Time;durP1;ratioP1;P1;durP2;ratioP2;P2;SDS_P1;SDS_P2;PMS_P1;PMS_P2;Temp;Humidity;BMP_temperature;BMP_pressure;BME280_temperature;BME280_humidity;BME280_pressure;Samples;Min_cycle;Max_cycle;Signal;HPM_P1;HPM_P2
2022/06/27 00:01:04;;;;;;;;;3.00;3.00;;;;;19.99;49.21;100888.81;5038449;28;45398;-50
2022/06/27 00:03:30;;;;;;;;;3.25;3.00;;;;;19.94;49.34;100880.28;5040333;28;45364;-47
2022/06/27 00:05:56;;;;;;;;;6.75;3.00;;;;;19.89;49.45;100872.59;5036001;28;72952;-46
2022/06/27 00:08:21;;;;;;;;;5.75;3.25;;;;;19.83;49.41;100870.34;5035533;28;45529;-48
2022/06/27 00:10:47;;;;;;;;;4.50;3.00;;;;;19.79;49.77;100866.16;5041200;28;45512;-47
2022/06/27 00:13:12;;;;;;;;;3.00;3.00;;;;;19.76;49.77;100866.38;5038374;28;53371;-47
2022/06/27 00:15:37;;;;;;;;;3.00;3.00;;;;;19.73;49.43;100871.84;5032263;28;67552;-49
2022/06/27 00:18:03;;;;;;;;;4.50;2.50;;;;;19.72;49.63;100878.09;5029894;28;75499;-50
2022/06/27 00:20:29;;;;;;;;;3.25;2.50;;;;;19.72;49.66;100883.41;5026943;28;45331;-48
2022/06/27 00:22:54;;;;;;;;;4.75;2.00;;;;;19.73;49.48;100885.13;5031643;28;45399;-49
2022/06/27 00:25:20;;;;;;;;;3.75;2.75;;;;;19.73;49.64;100887.78;5034707;28;45470;-51
2022/06/27 00:27:45;;;;;;;;;4.50;3.00;;;;;19.72;49.58;100878.97;5032840;28;67317;-49
2022/06/27 00:30:11;;;;;;;;;5.00;3.00;;;;;19.72;49.57;100881.63;5036106;28;45304;-47
2022/06/27 00:32:37;;;;;;;;;3.50;3.00;;;;;19.72;49.64;100870.13;5021531;28;45431;-49
2022/06/27 00:35:06;;;;;;;;;3.25;3.25;;;;;19.69;49.77;100865.88;5035766;28;45471;-49
2022/06/27 00:37:32;;;;;;;;;2.00;1.75;;;;;19.68;49.27;100861.50;5019027;28;46025;-46
2022/06/27 00:39:57;;;;;;;;;3.75;3.00;;;;;19.67;49.39;100862.47;5033921;28;53146;-48
2022/06/27 00:42:23;;;;;;;;;2.25;2.00;;;;;19.65;49.12;100863.50;5032148;28;59543;-47
2022/06/27 00:44:48;;;;;;;;;3.00;3.00;;;;;19.61;49.60;100870.81;5035718;28;45983;-46
2022/06/27 00:47:14;;;;;;;;;5.50;2.00;;;;;19.61;49.01;100870.81;5032260;28;72074;-47
2022/06/27 00:49:39;;;;;;;;;3.00;3.00;;;;;19.59;49.59;100862.09;5033719;28;45435;-50
2022/06/27 00:52:07;;;;;;;;;4.00;2.25;;;;;19.59;49.11;100864.75;5032290;28;45768;-52
2022/06/27 00:54:35;;;;;;;;;3.00;2.00;;;;;19.57;49.32;100866.66;5037063;28;45347;-49
2022/06/27 00:57:01;;;;;;;;;4.50;2.25;;;;;19.56;49.01;100874.69;5030570;28;46271;-51
2022/06/27 00:59:26;;;;;;;;;3.25;3.25;;;;;19.54;49.39;100874.78;5036652;28;45232;-47
2022/06/27 01:01:51;;;;;;;;;3.75;3.00;;;;;19.49;49.12;100872.41;5033018;28;45202;-52
2022/06/27 01:04:17;;;;;;;;;3.00;3.00;;;;;19.46;49.50;100879.72;5038675;28;45360;-52
2022/06/27 01:06:42;;;;;;;;;7.25;3.50;;;;;19.44;49.30;100894.88;5036931;28;48879;-50
2022/06/27 01:09:08;;;;;;;;;2.00;2.00;;;;;19.40;49.85;100880.94;5037186;28;62238;-49
2022/06/27 01:11:34;;;;;;;;;6.50;4.50;;;;;19.37;49.73;100888.25;5034415;28;50873;-47
2022/06/27 01:14:00;;;;;;;;;3.50;2.25;;;;;19.33;49.09;100885.78;5035978;28;47421;-51
2022/06/27 01:16:25;;;;;;;;;3.50;2.25;;;;;19.32;49.27;100888.56;5035926;28;46616;-48
2022/06/27 01:18:51;;;;;;;;;4.75;3.00;;;;;19.30;49.70;100886.00;5017102;28;45233;-52
2022/06/27 01:21:22;;;;;;;;;3.00;2.00;;;;;19.29;49.60;100880.78;5036451;28;45793;-52
2022/06/27 01:23:48;;;;;;;;;3.75;2.00;;;;;19.27;49.43;100867.59;5035837;28;45398;-52
2022/06/27 01:26:13;;;;;;;;;4.25;3.50;;;;;19.27;49.51;100880.84;5035265;28;46727;-52
2022/06/27 01:28:39;;;;;;;;;3.50;2.25;;;;;19.28;49.31;100887.00;5037781;28;62925;-52
2022/06/27 01:31:04;;;;;;;;;3.50;2.00;;;;;19.28;49.62;100879.94;5029207;28;64689;-50
2022/06/27 01:33:30;;;;;;;;;3.00;2.00;;;;;19.27;49.82;100891.47;5038303;28;45645;-48
2022/06/27 01:36:41;;;;;;;;;3.50;3.25;;;;;19.27;49.74;100894.13;5033500;28;45637;-51
2022/06/27 01:38:40;;;;;;;;;3.50;2.00;;;;;19.28;49.67;100905.59;5031342;28;45403;-49
2022/06/27 01:41:06;;;;;;;;;3.25;3.00;;;;;19.32;49.83;100907.97;5031804;28;57474;-51
2022/06/27 01:43:31;;;;;;;;;3.00;3.00;;;;;19.33;49.75;100901.69;5026805;28;45533;-51
2022/06/27 01:45:57;;;;;;;;;3.50;2.75;;;;;19.34;49.73;100897.25;5036207;28;45536;-48
2022/06/27 01:48:23;;;;;;;;;5.00;2.00;;;;;19.35;49.81;100885.69;5035893;28;73076;-51
2022/06/27 01:50:49;;;;;;;;;5.00;3.25;;;;;19.38;49.59;100897.94;5031772;28;67087;-49
2022/06/27 01:53:16;;;;;;;;;6.00;2.00;;;;;19.40;49.57;100891.56;5036456;28;45487;-49
2022/06/27 01:55:41;;;;;;;;;5.00;4.00;;;;;19.41;49.73;100890.63;5035020;28;46220;-51
2022/06/27 01:58:06;;;;;;;;;4.00;3.00;;;;;19.44;49.50;100886.91;5033442;28;54849;-49
2022/06/27 02:00:32;;;;;;;;;4.00;2.75;;;;;19.43;49.59;100878.13;5034375;28;64248;-51
2022/06/27 02:02:57;;;;;;;;;2.00;2.00;;;;;19.44;49.31;100882.50;5032249;28;65005;-53
2022/06/27 02:05:22;;;;;;;;;3.00;3.00;;;;;19.46;49.48;100877.94;5033502;28;45951;-48
2022/06/27 02:07:50;;;;;;;;;1.00;0.25;;;;;19.50;49.40;100881.25;5036432;28;67799;-53
2022/06/27 02:10:15;;;;;;;;;2.25;1.25;;;;;19.52;49.18;100888.16;5034140;28;45721;-51
2022/06/27 02:12:41;;;;;;;;;2.50;2.50;;;;;19.53;49.39;100881.91;5026171;28;64584;-51
2022/06/27 02:15:07;;;;;;;;;3.25;3.00;;;;;19.56;49.16;100867.56;5031457;28;76188;-50
2022/06/27 02:17:32;;;;;;;;;3.00;3.00;;;;;19.57;49.31;100881.72;5032705;28;45672;-50
2022/06/27 02:19:59;;;;;;;;;1.50;1.50;;;;;19.59;49.27;100866.56;5034508;28;45773;-50
2022/06/27 02:22:25;;;;;;;;;2.75;2.00;;;;;19.61;48.92;100867.31;5032984;28;45439;-50
2022/06/27 02:24:50;;;;;;;;;3.25;3.25;;;;;19.62;49.15;100869.88;5036252;28;45698;-47
2022/06/27 02:27:16;;;;;;;;;2.00;2.00;;;;;19.64;49.01;100861.81;5032719;28;45480;-50
2022/06/27 02:29:41;;;;;;;;;3.00;3.00;;;;;19.65;49.00;100882.91;5033802;28;62310;-49
2022/06/27 02:32:07;;;;;;;;;2.00;2.00;;;;;19.64;49.55;100883.03;5033756;28;45289;-51
2022/06/27 02:34:34;;;;;;;;;2.00;2.00;;;;;19.54;49.59;100882.75;5016981;28;46146;-51
2022/06/27 02:37:00;;;;;;;;;2.75;2.75;;;;;19.47;49.28;100887.59;5030892;28;46060;-51
2022/06/27 02:39:29;;;;;;;;;2.25;2.25;;;;;19.48;49.50;100884.00;5035855;28;45454;-49
2022/06/27 02:41:58;;;;;;;;;6.00;2.00;;;;;19.52;49.33;100874.03;5035439;28;45430;-49
2022/06/27 02:44:26;;;;;;;;;2.75;2.00;;;;;19.56;49.44;100874.69;5035332;28;45437;-51
2022/06/27 02:46:51;;;;;;;;;6.75;3.00;;;;;19.56;49.16;100880.84;5028426;28;45774;-49
2022/06/27 02:49:17;;;;;;;;;4.00;1.75;;;;;19.56;49.10;100888.81;5037751;28;45312;-52
2022/06/27 02:51:49;;;;;;;;;2.75;2.75;;;;;19.60;49.34;100886.81;5028998;28;70268;-47
2022/06/27 02:54:19;;;;;;;;;3.00;3.00;;;;;19.62;49.04;100890.22;5032804;28;46343;-48
2022/06/27 02:57:07;;;;;;;;;2.25;2.00;;;;;19.65;49.00;100892.69;5029241;28;45830;-51
2022/06/27 02:59:35;;;;;;;;;3.00;2.00;;;;;19.66;49.22;100892.59;5038436;28;45286;-49
2022/06/27 03:02:02;;;;;;;;;4.25;3.25;;;;;19.69;48.96;100895.06;5036022;28;45444;-50
2022/06/27 03:04:27;;;;;;;;;3.75;2.50;;;;;19.71;49.11;100894.97;5038143;28;45970;-48
2022/06/27 03:06:53;;;;;;;;;2.25;2.00;;;;;19.73;48.84;100898.38;5040377;28;45481;-50
2022/06/27 03:09:18;;;;;;;;;3.00;3.00;;;;;19.72;48.84;100888.72;5042592;28;45688;-50
2022/06/27 03:11:47;;;;;;;;;3.00;2.00;;;;;19.71;48.68;100892.34;5031637;28;45356;-50
2022/06/27 03:14:13;;;;;;;;;2.25;2.25;;;;;19.71;48.95;100890.53;5035437;28;46688;-49
2022/06/27 03:16:38;;;;;;;;;3.00;3.00;;;;;19.71;48.87;100881.72;5037230;28;65628;-47
2022/06/27 03:19:03;;;;;;;;;2.00;2.00;;;;;19.72;48.94;100880.75;5037040;28;55861;-50
2022/06/27 03:21:29;;;;;;;;;1.75;1.50;;;;;19.72;48.84;100881.63;5030788;28;45553;-49
2022/06/27 03:23:54;;;;;;;;;2.50;2.00;;;;;19.73;48.65;100877.16;5039106;28;45287;-48
2022/06/27 03:26:20;;;;;;;;;2.00;2.00;;;;;19.72;48.77;100876.31;5021780;28;46428;-48
2022/06/27 03:28:46;;;;;;;;;4.50;2.25;;;;;19.72;48.63;100881.63;5038490;28;45449;-53
2022/06/27 03:31:11;;;;;;;;;3.25;3.25;;;;;19.71;49.01;100882.56;5032782;28;45490;-50
2022/06/27 03:33:37;;;;;;;;;3.00;3.00;;;;;19.71;48.51;100876.41;5039291;28;46226;-48
2022/06/27 03:36:03;;;;;;;;;1.00;1.00;;;;;19.69;48.42;100868.53;5048709;28;59614;-48
2022/06/27 03:38:28;;;;;;;;;4.00;3.00;;;;;19.67;48.39;100869.56;5040674;28;45520;-48
2022/06/27 03:40:54;;;;;;;;;3.25;2.75;;;;;19.64;48.68;100873.28;5035345;28;73081;-48
2022/06/27 03:43:19;;;;;;;;;2.00;2.00;;;;;19.61;48.69;100862.84;5036697;28;46043;-50
2022/06/27 03:45:45;;;;;;;;;3.25;2.00;;;;;19.61;48.60;100854.88;5035487;28;45282;-48
2022/06/27 03:50:00;;;;;;;;;3.75;2.50;;;;;19.61;48.84;100864.66;5027373;28;45400;-48
2022/06/27 03:50:56;;;;;;;;;3.75;2.75;;;;;19.58;48.87;100878.94;5031654;28;45430;-48
2022/06/27 03:53:21;;;;;;;;;2.00;2.00;;;;;19.59;49.02;100874.50;5034025;28;54784;-49
2022/06/27 03:55:46;;;;;;;;;1.50;1.50;;;;;19.60;48.92;100877.06;5035177;28;67744;-48
2022/06/27 03:58:12;;;;;;;;;1.00;1.00;;;;;19.57;48.86;100874.59;5035095;28;66130;-52
2022/06/27 04:00:38;;;;;;;;;2.00;2.00;;;;;19.57;49.14;100879.06;5032102;28;73249;-47
2022/06/27 04:03:03;;;;;;;;;2.00;2.00;;;;;19.56;49.07;100872.03;5037235;28;45386;-50
2022/06/27 04:05:28;;;;;;;;;4.00;2.00;;;;;19.56;48.96;100872.03;5038071;28;66037;-47
2022/06/27 04:07:53;;;;;;;;;3.00;1.25;;;;;19.56;49.10;100894.13;5037887;28;69319;-48
2022/06/27 04:10:19;;;;;;;;;3.25;1.00;;;;;19.54;48.80;100896.03;5033732;28;62766;-51
2022/06/27 04:12:44;;;;;;;;;4.50;1.00;;;;;19.53;49.00;100883.72;5036839;28;45454;-52
2022/06/27 04:15:11;;;;;;;;;4.00;2.50;;;;;19.52;49.26;100895.28;5033724;28;45523;-47
2022/06/27 04:17:37;;;;;;;;;4.00;3.00;;;;;19.51;49.10;100906.81;5029601;28;45415;-49
2022/06/27 04:20:03;;;;;;;;;2.00;2.00;;;;;19.52;48.98;100903.25;5051767;28;46949;-47
2022/06/27 04:22:29;;;;;;;;;4.00;2.00;;;;;19.53;49.24;100902.31;5029190;28;45668;-47
2022/06/27 04:24:55;;;;;;;;;3.25;2.00;;;;;19.53;49.26;100911.09;5036003;28;45367;-47
2022/06/27 04:27:21;;;;;;;;;2.75;2.75;;;;;19.54;49.10;100911.94;5037047;28;45312;-48
2022/06/27 04:29:50;;;;;;;;;1.50;1.50;;;;;19.54;49.40;100915.44;5035051;28;45369;-51
2022/06/27 04:32:19;;;;;;;;;2.50;2.00;;;;;19.51;49.28;100920.97;5033698;28;46107;-51
2022/06/27 04:34:45;;;;;;;;;2.25;2.00;;;;;19.49;49.37;100925.50;5031851;28;45407;-48
2022/06/27 04:37:11;;;;;;;;;3.00;2.00;;;;;19.47;49.38;100938.00;5036504;28;45403;-49
2022/06/27 04:39:38;;;;;;;;;3.25;2.00;;;;;19.48;49.41;100934.44;5033224;27;45300;-51
2022/06/27 04:42:04;;;;;;;;;2.00;2.00;;;;;19.47;49.46;100942.47;5039762;28;46247;-46
2022/06/27 04:44:29;;;;;;;;;3.00;2.00;;;;;19.46;49.62;100952.25;5051966;28;45816;-47
2022/06/27 04:46:56;;;;;;;;;3.75;1.75;;;;;19.44;49.65;100963.88;5028570;28;45471;-47
2022/06/27 04:49:21;;;;;;;;;3.75;2.00;;;;;19.43;49.21;100956.91;5036398;28;45706;-46
2022/06/27 04:51:49;;;;;;;;;5.00;2.00;;;;;19.41;49.77;100949.03;5033355;28;45943;-46
2022/06/27 04:54:16;;;;;;;;;3.25;2.00;;;;;19.41;49.85;100943.72;5037208;28;45559;-49
2022/06/27 04:56:42;;;;;;;;;2.00;2.00;;;;;19.41;49.31;100934.91;5038943;28;45240;-47
2022/06/27 04:59:09;;;;;;;;;3.25;1.00;;;;;19.38;49.16;100927.97;5038175;28;45696;-47
2022/06/27 05:01:34;;;;;;;;;2.25;2.00;;;;;19.40;49.17;100927.88;5036149;28;45635;-48
2022/06/27 05:03:59;;;;;;;;;1.00;1.00;;;;;19.43;49.46;100920.59;5033944;28;64175;-50
2022/06/27 05:06:25;;;;;;;;;3.25;1.50;;;;;19.41;49.69;100917.16;5037952;28;45395;-48
2022/06/27 05:08:50;;;;;;;;;3.50;2.00;;;;;19.41;49.53;100906.56;5036980;28;73389;-49
2022/06/27 05:11:16;;;;;;;;;2.00;1.25;;;;;19.43;49.39;100893.19;5038670;28;45270;-48
2022/06/27 05:13:42;;;;;;;;;1.50;1.50;;;;;19.44;49.25;100895.75;5035776;28;45525;-48
2022/06/27 05:16:07;;;;;;;;;4.00;3.00;;;;;19.47;49.53;100905.31;5031961;28;45387;-49
2022/06/27 05:18:33;;;;;;;;;5.50;4.50;;;;;19.47;49.30;100927.41;5048066;28;45434;-48
2022/06/27 05:20:58;;;;;;;;;6.00;4.25;;;;;19.47;49.25;100923.91;5028996;28;47205;-51
2022/06/27 05:23:23;;;;;;;;;2.00;2.00;;;;;19.44;49.14;100922.31;5035876;28;45434;-48
2022/06/27 05:25:49;;;;;;;;;3.00;2.00;;;;;19.46;49.27;100919.53;5033994;28;45829;-48
2022/06/27 05:28:14;;;;;;;;;3.00;3.00;;;;;19.47;49.15;100913.28;5035976;28;45514;-48
2022/06/27 05:30:40;;;;;;;;;2.50;1.50;;;;;19.47;49.33;100900.84;5032291;28;66048;-49
2022/06/27 05:33:06;;;;;;;;;5.75;2.00;;;;;19.49;49.23;100909.56;5034534;28;45325;-52
2022/06/27 05:35:31;;;;;;;;;3.25;2.00;;;;;19.50;50.16;100934.34;5030024;28;45373;-64
2022/06/27 05:37:57;;;;;;;;;2.25;2.00;;;;;19.51;50.42;100951.94;5037488;28;45245;-63
2022/06/27 05:40:22;;;;;;;;;4.00;3.50;;;;;19.47;50.81;100921.25;5038577;28;46014;-65
2022/06/27 05:42:49;;;;;;;;;3.25;3.25;;;;;19.43;50.77;100923.22;5027774;28;45582;-64
2022/06/27 05:45:15;;;;;;;;;5.00;2.50;;;;;19.37;50.48;100944.84;5031699;28;45333;-64
2022/06/27 05:47:41;;;;;;;;;4.00;2.00;;;;;19.30;50.24;100948.78;5026803;28;45589;-64
2022/06/27 05:50:07;;;;;;;;;3.75;3.00;;;;;19.24;50.78;100950.03;5034506;28;45481;-61
2022/06/27 05:52:33;;;;;;;;;2.00;2.00;;;;;19.19;51.68;100944.13;5031638;28;45505;-62
2022/06/27 05:54:59;;;;;;;;;3.00;3.00;;;;;19.16;51.28;100937.22;5029020;28;45336;-63
2022/06/27 05:57:25;;;;;;;;;3.50;2.75;;;;;19.13;51.95;100947.16;5035339;28;46808;-66
2022/06/27 05:59:55;;;;;;;;;4.00;2.25;;;;;19.11;52.00;100957.88;5033458;28;45534;-67
2022/06/27 06:02:25;;;;;;;;;3.00;3.00;;;;;19.11;51.39;100954.38;5033821;28;45832;-61
2022/06/27 06:04:51;;;;;;;;;3.50;2.00;;;;;19.14;51.77;100959.47;5038163;28;45643;-60
2022/06/27 06:07:17;;;;;;;;;4.00;3.50;;;;;19.18;51.97;100962.81;5030963;28;45656;-62
2022/06/27 06:09:43;;;;;;;;;3.75;2.00;;;;;19.21;51.59;100967.94;5034758;28;46079;-62
2022/06/27 06:12:09;;;;;;;;;5.50;3.25;;;;;19.26;51.24;100971.16;5035820;28;46880;-65
2022/06/27 06:14:35;;;;;;;;;2.75;2.50;;;;;19.29;51.46;100973.66;5037832;28;45564;-64
2022/06/27 06:17:01;;;;;;;;;4.75;2.75;;;;;19.32;51.47;100971.66;5031990;28;45695;-57
2022/06/27 06:19:27;;;;;;;;;6.25;4.00;;;;;19.36;51.41;100977.63;5037444;28;45606;-56
2022/06/27 06:21:53;;;;;;;;;3.00;3.00;;;;;19.38;51.13;100959.81;5025423;28;45339;-60
2022/06/27 06:24:18;;;;;;;;;4.25;4.00;;;;;19.40;51.32;100943.81;5033287;28;45498;-63
2022/06/27 06:26:45;;;;;;;;;4.00;4.00;;;;;19.44;51.16;100945.31;5043576;28;45552;-60
2022/06/27 06:29:18;;;;;;;;;4.00;3.00;;;;;19.45;51.30;100968.25;5037514;28;46889;-56
2022/06/27 06:31:45;;;;;;;;;5.25;2.25;;;;;19.48;51.00;100986.66;5034819;28;45320;-64
2022/06/27 06:34:12;;;;;;;;;2.50;2.50;;;;;19.49;51.43;100991.00;5033553;28;45470;-63
2022/06/27 06:36:38;;;;;;;;;3.00;3.00;;;;;19.53;51.20;100988.09;5035378;28;45491;-63
2022/06/27 06:39:05;;;;;;;;;3.50;3.00;;;;;19.58;51.07;100994.91;5031277;28;45448;-62
2022/06/27 06:41:31;;;;;;;;;4.00;3.50;;;;;19.55;50.68;101009.25;5020005;28;45938;-62
2022/06/27 06:43:59;;;;;;;;;4.00;2.00;;;;;19.58;50.77;101011.69;5031651;28;45513;-50
2022/06/27 06:46:24;;;;;;;;;5.00;3.50;;;;;19.59;50.66;101004.59;5030963;28;45482;-51
2022/06/27 06:48:53;;;;;;;;;3.75;1.00;;;;;19.64;50.49;100994.56;5032792;28;45434;-50
2022/06/27 06:51:18;;;;;;;;;4.75;3.00;;;;;19.64;50.44;100990.09;5036610;28;45326;-50
2022/06/27 06:53:45;;;;;;;;;5.00;4.00;;;;;19.69;50.24;101009.25;5028325;28;45154;-52
2022/06/27 06:56:10;;;;;;;;;6.00;4.00;;;;;19.78;50.59;101020.28;5027586;28;45324;-52
2022/06/27 06:58:36;;;;;;;;;3.00;3.00;;;;;19.83;50.09;101023.50;5033313;28;46163;-52
2022/06/27 07:01:02;;;;;;;;;4.50;3.25;;;;;19.85;49.89;101033.09;5034197;28;45269;-46
2022/06/27 07:03:28;;;;;;;;;4.75;3.00;;;;;19.88;50.13;101043.56;5035586;28;45645;-47
2022/06/27 07:05:54;;;;;;;;;4.00;3.00;;;;;19.88;50.09;101050.63;5028001;28;45265;-48
2022/06/27 07:08:21;;;;;;;;;1.50;1.50;;;;;19.82;50.05;101062.50;5034984;28;47152;-47
2022/06/27 07:10:46;;;;;;;;;2.00;2.00;;;;;19.77;49.81;101064.56;5030076;28;45363;-50
2022/06/27 07:13:11;;;;;;;;;2.00;2.00;;;;;19.74;50.07;101072.72;5037979;28;45401;-49
2022/06/27 07:15:37;;;;;;;;;5.00;4.00;;;;;19.78;50.33;101076.91;5026169;28;45328;-51
2022/06/27 07:18:04;;;;;;;;;1.25;0.75;;;;;19.84;50.13;101081.00;5028305;28;45296;-52
2022/06/27 07:20:30;;;;;;;;;3.50;2.00;;;;;19.88;49.97;101082.50;5029802;28;45256;-51
2022/06/27 07:22:56;;;;;;;;;5.75;2.00;;;;;19.91;50.07;101079.69;5029071;28;45607;-51
2022/06/27 07:25:22;;;;;;;;;2.00;2.00;;;;;19.98;49.69;101082.81;5019181;28;64510;-51
2022/06/27 07:27:49;;;;;;;;;2.50;2.50;;;;;20.02;49.20;101082.53;5026403;28;45844;-52
2022/06/27 07:30:15;;;;;;;;;4.25;2.00;;;;;20.04;49.53;101091.28;5031351;28;45509;-52
2022/06/27 07:32:41;;;;;;;;;5.00;4.00;;;;;20.07;49.20;101095.53;5031406;28;45331;-52
2022/06/27 07:35:11;;;;;;;;;4.50;3.00;;;;;20.10;49.05;101090.03;5029611;28;45429;-50
2022/06/27 07:37:39;;;;;;;;;4.25;4.00;;;;;20.12;48.91;101088.16;5036491;28;47176;-49
2022/06/27 07:40:06;;;;;;;;;2.00;2.00;;;;;20.15;48.87;101089.75;5035937;28;45686;-52
2022/06/27 07:42:31;;;;;;;;;3.00;2.00;;;;;20.16;48.82;101083.50;5034651;28;45511;-54
2022/06/27 07:44:57;;;;;;;;;6.50;3.00;;;;;20.20;48.74;101075.25;5036510;28;45254;-48
2022/06/27 07:47:22;;;;;;;;;5.00;3.50;;;;;20.30;48.82;101089.66;5036648;28;46075;-49
2022/06/27 07:49:48;;;;;;;;;4.25;3.00;;;;;20.39;48.17;101085.56;5032388;28;45375;-51
2022/06/27 07:52:13;;;;;;;;;3.75;2.00;;;;;20.47;48.25;101088.59;5023414;28;45369;-50
2022/06/27 07:54:39;;;;;;;;;3.00;3.00;;;;;20.49;48.38;101088.50;5032319;28;63202;-50
2022/06/27 07:57:05;;;;;;;;;3.25;1.75;;;;;20.57;48.28;101086.19;5022040;28;46823;-50
2022/06/27 07:59:30;;;;;;;;;3.25;2.75;;;;;20.65;47.87;101099.06;5040223;28;45410;-48
2022/06/27 08:01:56;;;;;;;;;2.00;2.00;;;;;20.75;47.68;101097.53;5040932;28;45419;-48
2022/06/27 08:04:22;;;;;;;;;5.00;2.50;;;;;20.79;47.71;101099.03;5039757;28;45550;-47
2022/06/27 08:06:49;;;;;;;;;3.50;2.00;;;;;20.76;47.52;101098.38;5029593;28;45632;-51
2022/06/27 08:09:14;;;;;;;;;5.25;3.00;;;;;20.69;47.61;101097.91;5031859;28;45828;-50
2022/06/27 08:11:42;;;;;;;;;4.00;2.00;;;;;20.66;47.74;101098.97;5034718;28;45378;-50
2022/06/27 08:14:11;;;;;;;;;3.00;3.00;;;;;20.68;47.70;101101.50;5027818;28;45390;-49
2022/06/27 08:16:39;;;;;;;;;2.00;2.00;;;;;20.75;47.68;101108.16;5029015;28;46195;-48
2022/06/27 08:19:06;;;;;;;;;5.25;3.50;;;;;20.82;47.77;101111.28;5029815;28;45403;-48
2022/06/27 08:21:34;;;;;;;;;5.75;3.25;;;;;20.90;47.65;101108.13;5030016;28;45398;-49
2022/06/27 08:24:04;;;;;;;;;1.75;1.00;;;;;21.02;46.80;101110.00;5037101;28;45334;-50
2022/06/27 08:26:31;;;;;;;;;2.00;2.00;;;;;21.04;46.43;101119.59;5030681;28;45454;-48
2022/06/27 08:28:58;;;;;;;;;3.25;2.00;;;;;21.00;46.43;101130.50;5039244;28;45431;-48
2022/06/27 08:31:25;;;;;;;;;3.75;2.75;;;;;20.87;46.61;101138.44;5023689;28;45356;-49
2022/06/27 08:33:54;;;;;;;;;2.50;2.00;;;;;20.70;46.44;101155.47;5035955;28;45304;-51
2022/06/27 08:36:21;;;;;;;;;3.25;1.75;;;;;20.54;46.52;101149.34;5031817;28;46342;-47
2022/06/27 08:38:49;;;;;;;;;5.25;4.00;;;;;20.45;47.14;101130.38;5037122;28;45714;-48
2022/06/27 08:41:15;;;;;;;;;2.75;2.75;;;;;20.46;47.00;101131.22;5028638;28;45681;-50
2022/06/27 08:43:41;;;;;;;;;5.50;3.50;;;;;20.48;47.12;101147.94;5037275;28;45486;-52
2022/06/27 08:46:09;;;;;;;;;3.75;3.50;;;;;20.48;47.56;101142.63;5038262;28;45363;-48
2022/06/27 08:48:41;;;;;;;;;2.00;2.00;;;;;20.47;47.92;101139.13;5022938;28;45452;-48
2022/06/27 08:51:07;;;;;;;;;4.25;3.75;;;;;20.48;48.10;101135.50;5035269;28;45469;-49
2022/06/27 08:53:33;;;;;;;;;1.75;1.75;;;;;20.58;47.63;101135.78;5035858;28;45462;-51
2022/06/27 08:56:00;;;;;;;;;4.00;2.00;;;;;20.71;46.90;101135.88;5023847;28;47474;-48
2022/06/27 08:58:27;;;;;;;;;3.25;2.00;;;;;20.82;46.58;101130.75;5032423;28;45430;-48
2022/06/27 09:00:53;;;;;;;;;1.75;1.75;;;;;20.99;46.67;101134.97;5028362;28;45416;-50
2022/06/27 09:03:21;;;;;;;;;2.00;0.50;;;;;21.07;45.83;101134.50;5032860;28;45484;-52
2022/06/27 09:06:07;;;;;;;;;2.00;2.00;;;;;21.17;45.58;101126.75;5032675;28;46366;-47
2022/06/27 09:08:36;;;;;;;;;4.25;3.00;;;;;21.36;45.23;101121.09;5032049;28;45715;-49
2022/06/27 09:11:03;;;;;;;;;2.00;2.00;;;;;21.51;45.30;101121.91;5033772;28;45304;-49
2022/06/27 09:13:29;;;;;;;;;2.25;2.25;;;;;21.59;45.39;101112.44;5032682;28;45499;-47
2022/06/27 09:16:01;;;;;;;;;3.00;2.25;;;;;21.73;44.30;101126.66;5034169;28;46346;-47
2022/06/27 09:18:34;;;;;;;;;3.25;2.00;;;;;21.88;44.39;101127.41;5036667;28;45647;-50
2022/06/27 09:21:09;;;;;;;;;2.75;2.25;;;;;22.04;43.68;101130.72;5026936;28;45506;-46
2022/06/27 09:24:01;;;;;;;;;3.50;1.75;;;;;22.15;42.04;101125.50;5037100;28;45537;-48
2022/06/27 09:26:39;;;;;;;;;3.00;2.00;;;;;22.14;41.23;101126.44;5038708;28;45526;-49
2022/06/27 09:29:11;;;;;;;;;1.00;1.00;;;;;22.12;41.00;101130.19;5035612;28;45320;-46
2022/06/27 09:31:40;;;;;;;;;1.75;1.75;;;;;22.11;40.15;101136.47;5022423;28;45365;-49
2022/06/27 09:34:18;;;;;;;;;6.50;3.00;;;;;22.13;42.11;101121.22;5028081;28;45448;-47
2022/06/27 09:36:51;;;;;;;;;5.50;3.25;;;;;22.21;41.86;101126.03;5024228;28;45480;-50
2022/06/27 09:39:31;;;;;;;;;4.50;1.75;;;;;22.34;41.90;101126.91;5037035;28;45536;-49
2022/06/27 09:42:14;;;;;;;;;3.50;1.50;;;;;22.66;40.38;101124.59;5040428;28;45375;-47
2022/06/27 09:44:40;;;;;;;;;1.25;1.25;;;;;23.24;41.67;101138.22;5037926;28;45544;-48
2022/06/27 09:47:14;;;;;;;;;1.50;1.00;;;;;24.05;39.85;101133.06;5033594;28;46263;-49
2022/06/27 09:49:41;;;;;;;;;1.75;1.00;;;;;25.25;37.66;101130.69;5028397;28;45697;-48
2022/06/27 09:52:09;;;;;;;;;2.50;2.00;;;;;26.57;37.84;101130.13;5039764;28;45469;-50
2022/06/27 09:54:36;;;;;;;;;0.50;0.50;;;;;27.94;34.53;101125.78;5029653;28;45510;-47
2022/06/27 09:57:02;;;;;;;;;2.75;1.00;;;;;29.24;33.36;101124.06;5019944;28;47109;-48
2022/06/27 09:59:28;;;;;;;;;1.00;0.50;;;;;30.44;29.79;101123.41;5025922;28;45410;-50
2022/06/27 10:01:57;;;;;;;;;2.00;0.00;;;;;31.65;28.89;101132.97;5025238;28;45294;-49
2022/06/27 10:04:24;;;;;;;;;0.00;0.00;;;;;32.76;27.52;101128.66;5037089;28;47805;-51
2022/06/27 10:06:50;;;;;;;;;0.00;0.00;;;;;33.78;27.26;101123.00;5035936;28;45421;-49
2022/06/27 10:09:20;;;;;;;;;1.00;0.00;;;;;35.02;23.08;101130.50;5030160;28;45426;-49
2022/06/27 10:11:46;;;;;;;;;0.00;0.00;;;;;36.02;25.48;101134.13;5031615;28;45299;-50
2022/06/27 10:14:22;;;;;;;;;1.25;0.75;;;;;36.97;21.21;101125.34;5031512;28;45458;-47
2022/06/27 10:16:58;;;;;;;;;0.75;0.75;;;;;37.50;22.23;101128.16;5033366;28;46229;-51
2022/06/27 10:19:25;;;;;;;;;2.00;0.00;;;;;38.12;19.61;101133.38;5037084;28;45687;-50
2022/06/27 10:21:51;;;;;;;;;0.00;0.00;;;;;38.33;20.18;101135.00;5036896;28;45427;-51
2022/06/27 10:24:21;;;;;;;;;1.00;1.00;;;;;38.55;22.44;101138.28;5035960;28;45592;-52
2022/06/27 10:26:48;;;;;;;;;1.50;0.00;;;;;39.04;21.88;101131.31;5038578;28;45435;-48
2022/06/27 10:29:34;;;;;;;;;3.00;0.00;;;;;39.47;17.47;101146.19;5034277;28;45252;-53
2022/06/27 10:32:02;;;;;;;;;1.50;0.25;;;;;39.61;19.16;101147.78;5053021;28;45468;-52
2022/06/27 10:34:39;;;;;;;;;0.00;0.00;;;;;39.94;19.11;101137.56;5038790;28;45400;-54
2022/06/27 10:37:26;;;;;;;;;4.50;2.25;;;;;40.22;20.16;101137.06;5038934;28;46385;-51
2022/06/27 10:40:20;;;;;;;;;1.75;1.25;;;;;40.79;19.22;101123.91;5034841;28;45338;-51
2022/06/27 10:42:49;;;;;;;;;1.75;0.25;;;;;41.23;18.61;101139.34;5035826;28;45317;-53
2022/06/27 10:45:20;;;;;;;;;1.75;0.00;;;;;41.26;17.86;101127.84;5039350;28;45363;-49
2022/06/27 10:47:57;;;;;;;;;4.75;3.50;;;;;39.79;16.82;101141.50;5030347;28;45364;-49
2022/06/27 10:50:25;;;;;;;;;6.00;4.00;;;;;39.35;19.06;101136.97;5035677;28;45753;-52
2022/06/27 10:53:19;;;;;;;;;2.00;1.00;;;;;39.37;17.93;101132.16;5038013;28;45448;-51
2022/06/27 10:55:45;;;;;;;;;2.00;0.00;;;;;39.74;16.04;101135.03;5023301;28;45606;-52
2022/06/27 10:58:22;;;;;;;;;2.00;2.00;;;;;40.08;17.96;101139.09;5027495;28;45513;-53
2022/06/27 11:00:48;;;;;;;;;2.00;2.00;;;;;40.67;18.37;101135.88;5030685;28;45666;-50
2022/06/27 11:03:22;;;;;;;;;2.25;2.00;;;;;41.44;16.60;101136.00;5030729;28;45395;-53
2022/06/27 11:06:03;;;;;;;;;4.00;2.25;;;;;41.88;15.99;101124.66;5024541;28;45371;-53
2022/06/27 11:08:29;;;;;;;;;1.75;1.50;;;;;42.29;15.69;101134.69;5028525;28;45500;-51
2022/06/27 11:10:55;;;;;;;;;0.00;0.00;;;;;42.23;16.24;101132.06;5026181;28;45600;-52
2022/06/27 11:13:34;;;;;;;;;1.00;1.00;;;;;41.31;15.08;101128.00;5022713;28;45442;-49
2022/06/27 11:15:59;;;;;;;;;0.50;0.00;;;;;41.38;15.98;101136.94;5029482;28;45498;-50
2022/06/27 11:18:24;;;;;;;;;0.50;0.00;;;;;41.49;15.83;101127.03;5035619;28;61470;-47
2022/06/27 11:20:50;;;;;;;;;0.50;0.00;;;;;41.55;15.33;101123.34;5046254;28;62148;-52
2022/06/27 11:23:15;;;;;;;;;2.25;0.25;;;;;40.89;14.02;101120.59;5039529;28;65293;-51
2022/06/27 11:25:47;;;;;;;;;1.00;1.00;;;;;40.65;14.86;101127.03;5038754;28;47730;-52